sensor_id;sensor_type;location;lat;lon;timestamp;P1;durP1;ratioP1;P2;durP2;ratioP2
7255;SDS011;3669;49.200;9.242;2023-05-24T00:00:49;3.03;;;2.63;;
7255;SDS011;3669;49.200;9.242;2023-05-24T00:03:17;3.15;;;2.70;;
7255;SDS011;3669;49.200;9.242;2023-05-24T00:05:46;4.32;;;2.80;;
7255;SDS011;3669;49.200;9.242;2023-05-24T00:08:13;4.35;;;2.83;;
7255;SDS011;3669;49.200;9.242;2023-05-24T00:10:41;3.63;;;2.83;;
7255;SDS011;3669;49.200;9.242;2023-05-24T00:13:08;4.43;;;2.83;;
7255;SDS011;3669;49.200;9.242;2023-05-24T00:15:35;3.83;;;2.58;;
7255;SDS011;3669;49.200;9.242;2023-05-24T00:18:02;3.33;;;2.95;;
7255;SDS011;3669;49.200;9.242;2023-05-24T00:20:30;4.78;;;3.00;;
7255;SDS011;3669;49.200;9.242;2023-05-24T00:22:57;5.80;;;3.10;;
7255;SDS011;3669;49.200;9.242;2023-05-24T00:25:24;3.63;;;2.75;;
7255;SDS011;3669;49.200;9.242;2023-05-24T00:27:51;5.53;;;3.10;;
7255;SDS011;3669;49.200;9.242;2023-05-24T00:30:18;5.18;;;3.20;;
7255;SDS011;3669;49.200;9.242;2023-05-24T00:32:45;4.85;;;2.88;;
7255;SDS011;3669;49.200;9.242;2023-05-24T00:35:12;4.63;;;3.40;;
7255;SDS011;3669;49.200;9.242;2023-05-24T00:37:39;2.97;;;2.53;;
7255;SDS011;3669;49.200;9.242;2023-05-24T00:40:10;4.65;;;2.78;;
7255;SDS011;3669;49.200;9.242;2023-05-24T00:42:37;4.47;;;2.67;;
7255;SDS011;3669;49.200;9.242;2023-05-24T00:45:05;4.93;;;3.20;;
7255;SDS011;3669;49.200;9.242;2023-05-24T00:47:32;12.05;;;11.32;;
7255;SDS011;3669;49.200;9.242;2023-05-24T00:50:00;5.55;;;3.03;;
7255;SDS011;3669;49.200;9.242;2023-05-24T00:52:27;4.38;;;3.00;;
7255;SDS011;3669;49.200;9.242;2023-05-24T00:54:54;4.80;;;3.13;;
7255;SDS011;3669;49.200;9.242;2023-05-24T00:57:21;5.05;;;3.28;;
7255;SDS011;3669;49.200;9.242;2023-05-24T00:59:50;3.90;;;3.33;;
7255;SDS011;3669;49.200;9.242;2023-05-24T01:02:17;5.47;;;3.03;;
7255;SDS011;3669;49.200;9.242;2023-05-24T01:04:45;3.85;;;2.80;;
7255;SDS011;3669;49.200;9.242;2023-05-24T01:07:34;3.47;;;2.72;;
7255;SDS011;3669;49.200;9.242;2023-05-24T01:10:17;5.55;;;3.38;;
7255;SDS011;3669;49.200;9.242;2023-05-24T01:12:50;4.60;;;3.15;;
7255;SDS011;3669;49.200;9.242;2023-05-24T01:15:27;3.70;;;3.17;;
7255;SDS011;3669;49.200;9.242;2023-05-24T01:18:15;4.32;;;3.38;;
7255;SDS011;3669;49.200;9.242;2023-05-24T01:20:42;3.35;;;2.80;;
7255;SDS011;3669;49.200;9.242;2023-05-24T01:28:28;20.98;;;19.67;;
7255;SDS011;3669;49.200;9.242;2023-05-24T01:30:55;5.93;;;3.65;;
7255;SDS011;3669;49.200;9.242;2023-05-24T01:33:22;4.10;;;3.00;;
7255;SDS011;3669;49.200;9.242;2023-05-24T01:35:49;6.15;;;3.42;;
7255;SDS011;3669;49.200;9.242;2023-05-24T01:38:16;7.18;;;3.33;;
7255;SDS011;3669;49.200;9.242;2023-05-24T01:40:43;3.65;;;2.72;;
7255;SDS011;3669;49.200;9.242;2023-05-24T01:43:26;4.40;;;3.05;;
7255;SDS011;3669;49.200;9.242;2023-05-24T01:48:41;3.25;;;2.90;;
7255;SDS011;3669;49.200;9.242;2023-05-24T01:51:14;4.05;;;3.05;;
7255;SDS011;3669;49.200;9.242;2023-05-24T01:53:44;5.55;;;3.20;;
7255;SDS011;3669;49.200;9.242;2023-05-24T01:56:13;5.32;;;3.10;;
7255;SDS011;3669;49.200;9.242;2023-05-24T01:58:42;4.68;;;3.05;;
7255;SDS011;3669;49.200;9.242;2023-05-24T02:01:10;3.33;;;3.00;;
7255;SDS011;3669;49.200;9.242;2023-05-24T02:03:39;4.90;;;3.38;;
7255;SDS011;3669;49.200;9.242;2023-05-24T02:06:06;3.88;;;3.35;;
7255;SDS011;3669;49.200;9.242;2023-05-24T02:08:35;5.88;;;3.22;;
7255;SDS011;3669;49.200;9.242;2023-05-24T02:11:02;5.45;;;3.20;;
7255;SDS011;3669;49.200;9.242;2023-05-24T02:13:29;4.43;;;3.15;;
7255;SDS011;3669;49.200;9.242;2023-05-24T02:15:56;5.47;;;3.55;;
7255;SDS011;3669;49.200;9.242;2023-05-24T02:18:23;5.38;;;3.55;;
7255;SDS011;3669;49.200;9.242;2023-05-24T02:20:50;5.30;;;3.28;;
7255;SDS011;3669;49.200;9.242;2023-05-24T02:23:17;5.72;;;3.33;;
7255;SDS011;3669;49.200;9.242;2023-05-24T02:25:44;4.43;;;3.40;;
7255;SDS011;3669;49.200;9.242;2023-05-24T02:28:11;5.72;;;3.35;;
7255;SDS011;3669;49.200;9.242;2023-05-24T02:30:39;4.72;;;3.28;;
7255;SDS011;3669;49.200;9.242;2023-05-24T02:33:09;3.45;;;2.95;;
7255;SDS011;3669;49.200;9.242;2023-05-24T02:35:37;5.53;;;3.35;;
7255;SDS011;3669;49.200;9.242;2023-05-24T02:38:06;5.32;;;3.55;;
7255;SDS011;3669;49.200;9.242;2023-05-24T02:40:34;6.45;;;3.28;;
7255;SDS011;3669;49.200;9.242;2023-05-24T02:43:01;4.82;;;3.25;;
7255;SDS011;3669;49.200;9.242;2023-05-24T02:45:28;6.78;;;3.50;;
7255;SDS011;3669;49.200;9.242;2023-05-24T02:47:55;5.10;;;3.08;;
7255;SDS011;3669;49.200;9.242;2023-05-24T02:50:22;4.95;;;3.17;;
7255;SDS011;3669;49.200;9.242;2023-05-24T02:52:49;4.90;;;3.17;;
7255;SDS011;3669;49.200;9.242;2023-05-24T02:55:16;6.00;;;3.45;;
7255;SDS011;3669;49.200;9.242;2023-05-24T02:57:44;5.88;;;3.47;;
7255;SDS011;3669;49.200;9.242;2023-05-24T03:00:13;4.82;;;3.38;;
7255;SDS011;3669;49.200;9.242;2023-05-24T03:02:40;5.60;;;3.33;;
7255;SDS011;3669;49.200;9.242;2023-05-24T03:05:07;5.13;;;3.50;;
7255;SDS011;3669;49.200;9.242;2023-05-24T03:07:34;4.72;;;3.45;;
7255;SDS011;3669;49.200;9.242;2023-05-24T03:10:01;4.70;;;3.20;;
7255;SDS011;3669;49.200;9.242;2023-05-24T03:12:28;5.85;;;3.38;;
7255;SDS011;3669;49.200;9.242;2023-05-24T03:14:55;4.93;;;3.20;;
7255;SDS011;3669;49.200;9.242;2023-05-24T03:17:22;5.15;;;3.22;;
7255;SDS011;3669;49.200;9.242;2023-05-24T03:19:49;5.25;;;3.20;;
7255;SDS011;3669;49.200;9.242;2023-05-24T03:22:17;4.25;;;3.47;;
7255;SDS011;3669;49.200;9.242;2023-05-24T03:24:44;4.63;;;3.10;;
7255;SDS011;3669;49.200;9.242;2023-05-24T03:27:11;6.40;;;3.78;;
7255;SDS011;3669;49.200;9.242;2023-05-24T03:29:38;20.30;;;18.92;;
7255;SDS011;3669;49.200;9.242;2023-05-24T03:32:05;27.10;;;25.48;;
7255;SDS011;3669;49.200;9.242;2023-05-24T03:34:32;27.05;;;25.23;;
7255;SDS011;3669;49.200;9.242;2023-05-24T03:36:59;26.08;;;24.25;;
7255;SDS011;3669;49.200;9.242;2023-05-24T03:39:26;22.67;;;21.17;;
7255;SDS011;3669;49.200;9.242;2023-05-24T03:41:53;17.23;;;16.00;;
7255;SDS011;3669;49.200;9.242;2023-05-24T03:44:20;14.80;;;13.60;;
7255;SDS011;3669;49.200;9.242;2023-05-24T03:46:47;9.73;;;8.32;;
7255;SDS011;3669;49.200;9.242;2023-05-24T03:49:14;5.57;;;3.35;;
7255;SDS011;3669;49.200;9.242;2023-05-24T03:51:41;6.43;;;3.72;;
7255;SDS011;3669;49.200;9.242;2023-05-24T03:54:08;6.28;;;3.30;;
7255;SDS011;3669;49.200;9.242;2023-05-24T03:56:35;6.82;;;3.70;;
7255;SDS011;3669;49.200;9.242;2023-05-24T03:59:03;6.97;;;3.85;;
7255;SDS011;3669;49.200;9.242;2023-05-24T04:01:30;6.10;;;3.60;;
7255;SDS011;3669;49.200;9.242;2023-05-24T04:03:57;6.38;;;3.47;;
7255;SDS011;3669;49.200;9.242;2023-05-24T04:06:26;5.50;;;3.45;;
7255;SDS011;3669;49.200;9.242;2023-05-24T04:08:57;6.72;;;3.50;;
7255;SDS011;3669;49.200;9.242;2023-05-24T04:11:25;5.70;;;3.50;;
7255;SDS011;3669;49.200;9.242;2023-05-24T04:13:53;5.63;;;3.10;;
7255;SDS011;3669;49.200;9.242;2023-05-24T04:16:21;6.25;;;3.50;;
7255;SDS011;3669;49.200;9.242;2023-05-24T04:18:53;5.65;;;3.72;;
7255;SDS011;3669;49.200;9.242;2023-05-24T04:21:20;6.88;;;3.63;;
7255;SDS011;3669;49.200;9.242;2023-05-24T04:23:47;4.40;;;3.00;;
7255;SDS011;3669;49.200;9.242;2023-05-24T04:26:15;4.90;;;3.20;;
7255;SDS011;3669;49.200;9.242;2023-05-24T04:28:42;6.32;;;3.20;;
7255;SDS011;3669;49.200;9.242;2023-05-24T04:31:10;5.70;;;3.03;;
7255;SDS011;3669;49.200;9.242;2023-05-24T04:33:37;7.57;;;3.42;;
7255;SDS011;3669;49.200;9.242;2023-05-24T04:36:04;5.15;;;3.40;;
7255;SDS011;3669;49.200;9.242;2023-05-24T04:38:32;6.45;;;3.60;;
7255;SDS011;3669;49.200;9.242;2023-05-24T04:41:02;5.75;;;3.40;;
7255;SDS011;3669;49.200;9.242;2023-05-24T04:43:30;6.22;;;3.55;;
7255;SDS011;3669;49.200;9.242;2023-05-24T04:45:58;4.68;;;3.00;;
7255;SDS011;3669;49.200;9.242;2023-05-24T04:48:26;6.53;;;3.38;;
7255;SDS011;3669;49.200;9.242;2023-05-24T04:50:53;7.80;;;3.58;;
7255;SDS011;3669;49.200;9.242;2023-05-24T04:53:21;5.20;;;3.28;;
7255;SDS011;3669;49.200;9.242;2023-05-24T04:55:48;5.28;;;3.67;;
7255;SDS011;3669;49.200;9.242;2023-05-24T04:58:15;6.60;;;3.22;;
7255;SDS011;3669;49.200;9.242;2023-05-24T05:00:42;4.68;;;3.33;;
7255;SDS011;3669;49.200;9.242;2023-05-24T05:03:10;6.22;;;3.45;;
7255;SDS011;3669;49.200;9.242;2023-05-24T05:05:37;4.43;;;2.80;;
7255;SDS011;3669;49.200;9.242;2023-05-24T05:08:04;5.57;;;3.50;;
7255;SDS011;3669;49.200;9.242;2023-05-24T05:10:32;4.43;;;3.40;;
7255;SDS011;3669;49.200;9.242;2023-05-24T05:12:59;5.47;;;3.13;;
7255;SDS011;3669;49.200;9.242;2023-05-24T05:15:26;6.13;;;3.50;;
7255;SDS011;3669;49.200;9.242;2023-05-24T05:17:53;4.68;;;3.20;;
7255;SDS011;3669;49.200;9.242;2023-05-24T05:20:21;4.75;;;3.40;;
7255;SDS011;3669;49.200;9.242;2023-05-24T05:22:48;3.55;;;2.88;;
7255;SDS011;3669;49.200;9.242;2023-05-24T05:25:15;5.88;;;3.63;;
7255;SDS011;3669;49.200;9.242;2023-05-24T05:27:42;4.40;;;2.83;;
7255;SDS011;3669;49.200;9.242;2023-05-24T05:30:09;5.90;;;3.20;;
7255;SDS011;3669;49.200;9.242;2023-05-24T05:32:37;5.47;;;3.47;;
7255;SDS011;3669;49.200;9.242;2023-05-24T05:35:04;5.95;;;3.25;;
7255;SDS011;3669;49.200;9.242;2023-05-24T05:37:31;5.40;;;3.30;;
7255;SDS011;3669;49.200;9.242;2023-05-24T05:39:58;5.93;;;3.10;;
7255;SDS011;3669;49.200;9.242;2023-05-24T05:42:25;5.85;;;3.45;;
7255;SDS011;3669;49.200;9.242;2023-05-24T05:44:52;6.43;;;3.20;;
7255;SDS011;3669;49.200;9.242;2023-05-24T05:47:19;7.25;;;3.60;;
7255;SDS011;3669;49.200;9.242;2023-05-24T05:49:46;5.32;;;3.40;;
7255;SDS011;3669;49.200;9.242;2023-05-24T05:52:13;5.18;;;3.20;;
7255;SDS011;3669;49.200;9.242;2023-05-24T05:54:40;7.43;;;3.70;;
7255;SDS011;3669;49.200;9.242;2023-05-24T05:57:07;14.13;;;13.02;;
7255;SDS011;3669;49.200;9.242;2023-05-24T05:59:36;23.48;;;21.80;;
7255;SDS011;3669;49.200;9.242;2023-05-24T06:02:03;28.02;;;26.15;;
7255;SDS011;3669;49.200;9.242;2023-05-24T06:04:31;27.67;;;26.10;;
7255;SDS011;3669;49.200;9.242;2023-05-24T06:06:57;24.95;;;23.20;;
7255;SDS011;3669;49.200;9.242;2023-05-24T06:09:24;12.55;;;11.55;;
7255;SDS011;3669;49.200;9.242;2023-05-24T06:11:51;10.38;;;8.43;;
7255;SDS011;3669;49.200;9.242;2023-05-24T06:14:18;6.07;;;3.67;;
7255;SDS011;3669;49.200;9.242;2023-05-24T06:16:46;6.38;;;3.28;;
7255;SDS011;3669;49.200;9.242;2023-05-24T06:19:13;5.60;;;3.38;;
7255;SDS011;3669;49.200;9.242;2023-05-24T06:21:41;6.95;;;3.75;;
7255;SDS011;3669;49.200;9.242;2023-05-24T06:24:13;7.78;;;3.67;;
7255;SDS011;3669;49.200;9.242;2023-05-24T06:26:40;3.42;;;3.03;;
7255;SDS011;3669;49.200;9.242;2023-05-24T06:29:07;6.70;;;3.35;;
7255;SDS011;3669;49.200;9.242;2023-05-24T06:31:34;5.00;;;3.55;;
7255;SDS011;3669;49.200;9.242;2023-05-24T06:34:01;6.43;;;3.55;;
7255;SDS011;3669;49.200;9.242;2023-05-24T06:36:28;6.43;;;3.88;;
7255;SDS011;3669;49.200;9.242;2023-05-24T06:38:58;5.15;;;3.25;;
7255;SDS011;3669;49.200;9.242;2023-05-24T06:41:26;4.75;;;3.05;;
7255;SDS011;3669;49.200;9.242;2023-05-24T06:43:53;6.22;;;3.25;;
7255;SDS011;3669;49.200;9.242;2023-05-24T06:46:20;6.15;;;3.10;;
7255;SDS011;3669;49.200;9.242;2023-05-24T06:48:47;6.20;;;3.20;;
7255;SDS011;3669;49.200;9.242;2023-05-24T06:51:14;5.95;;;3.33;;
7255;SDS011;3669;49.200;9.242;2023-05-24T06:53:41;5.63;;;3.78;;
7255;SDS011;3669;49.200;9.242;2023-05-24T06:56:09;5.68;;;3.13;;
7255;SDS011;3669;49.200;9.242;2023-05-24T06:58:36;8.05;;;3.97;;
7255;SDS011;3669;49.200;9.242;2023-05-24T07:01:03;7.53;;;3.67;;
7255;SDS011;3669;49.200;9.242;2023-05-24T07:03:30;6.32;;;3.42;;
7255;SDS011;3669;49.200;9.242;2023-05-24T07:05:58;7.03;;;3.53;;
7255;SDS011;3669;49.200;9.242;2023-05-24T07:08:25;5.25;;;3.38;;
7255;SDS011;3669;49.200;9.242;2023-05-24T07:10:52;4.45;;;3.20;;
7255;SDS011;3669;49.200;9.242;2023-05-24T07:13:20;5.60;;;3.42;;
7255;SDS011;3669;49.200;9.242;2023-05-24T07:15:48;5.03;;;3.13;;
7255;SDS011;3669;49.200;9.242;2023-05-24T07:18:15;5.20;;;3.47;;
7255;SDS011;3669;49.200;9.242;2023-05-24T07:20:42;6.50;;;3.10;;
7255;SDS011;3669;49.200;9.242;2023-05-24T07:23:09;6.15;;;3.42;;
7255;SDS011;3669;49.200;9.242;2023-05-24T07:25:36;4.82;;;2.90;;
7255;SDS011;3669;49.200;9.242;2023-05-24T07:28:04;7.50;;;3.72;;
7255;SDS011;3669;49.200;9.242;2023-05-24T07:30:31;6.00;;;3.47;;
7255;SDS011;3669;49.200;9.242;2023-05-24T07:32:58;5.15;;;3.17;;
7255;SDS011;3669;49.200;9.242;2023-05-24T07:35:26;5.85;;;3.40;;
7255;SDS011;3669;49.200;9.242;2023-05-24T07:37:54;6.00;;;2.95;;
7255;SDS011;3669;49.200;9.242;2023-05-24T07:40:21;8.05;;;3.92;;
7255;SDS011;3669;49.200;9.242;2023-05-24T07:42:48;6.78;;;3.88;;
7255;SDS011;3669;49.200;9.242;2023-05-24T07:45:15;4.82;;;3.47;;
7255;SDS011;3669;49.200;9.242;2023-05-24T07:47:42;5.15;;;3.92;;
7255;SDS011;3669;49.200;9.242;2023-05-24T07:50:09;6.95;;;3.63;;
7255;SDS011;3669;49.200;9.242;2023-05-24T07:52:37;5.93;;;3.42;;
7255;SDS011;3669;49.200;9.242;2023-05-24T07:55:04;5.80;;;3.63;;
7255;SDS011;3669;49.200;9.242;2023-05-24T07:57:31;7.43;;;3.63;;
7255;SDS011;3669;49.200;9.242;2023-05-24T07:59:58;4.53;;;3.17;;
7255;SDS011;3669;49.200;9.242;2023-05-24T08:02:32;7.05;;;3.40;;
7255;SDS011;3669;49.200;9.242;2023-05-24T08:04:59;6.88;;;3.90;;
7255;SDS011;3669;49.200;9.242;2023-05-24T08:07:26;7.00;;;6.20;;
7255;SDS011;3669;49.200;9.242;2023-05-24T08:09:54;14.25;;;13.30;;
7255;SDS011;3669;49.200;9.242;2023-05-24T08:12:21;18.88;;;17.63;;
7255;SDS011;3669;49.200;9.242;2023-05-24T08:14:50;25.15;;;23.65;;
7255;SDS011;3669;49.200;9.242;2023-05-24T08:17:17;26.80;;;25.10;;
7255;SDS011;3669;49.200;9.242;2023-05-24T08:19:44;24.80;;;23.15;;
7255;SDS011;3669;49.200;9.242;2023-05-24T08:22:11;23.65;;;22.13;;
7255;SDS011;3669;49.200;9.242;2023-05-24T08:24:38;11.25;;;10.25;;
7255;SDS011;3669;49.200;9.242;2023-05-24T08:27:05;7.65;;;5.78;;
7255;SDS011;3669;49.200;9.242;2023-05-24T08:29:33;7.90;;;3.35;;
7255;SDS011;3669;49.200;9.242;2023-05-24T08:32:00;6.15;;;3.50;;
7255;SDS011;3669;49.200;9.242;2023-05-24T08:34:28;5.45;;;3.35;;
7255;SDS011;3669;49.200;9.242;2023-05-24T08:36:55;4.40;;;3.00;;
7255;SDS011;3669;49.200;9.242;2023-05-24T08:39:22;6.93;;;3.25;;
7255;SDS011;3669;49.200;9.242;2023-05-24T08:41:49;6.50;;;2.90;;
7255;SDS011;3669;49.200;9.242;2023-05-24T08:44:16;5.57;;;3.50;;
7255;SDS011;3669;49.200;9.242;2023-05-24T08:46:44;7.15;;;3.38;;
7255;SDS011;3669;49.200;9.242;2023-05-24T08:49:11;6.70;;;3.53;;
7255;SDS011;3669;49.200;9.242;2023-05-24T08:51:39;5.25;;;3.30;;
7255;SDS011;3669;49.200;9.242;2023-05-24T08:54:06;4.63;;;3.22;;
7255;SDS011;3669;49.200;9.242;2023-05-24T08:56:37;7.05;;;3.20;;
7255;SDS011;3669;49.200;9.242;2023-05-24T08:59:05;7.65;;;3.60;;
7255;SDS011;3669;49.200;9.242;2023-05-24T09:01:32;6.45;;;3.33;;
7255;SDS011;3669;49.200;9.242;2023-05-24T09:03:59;5.28;;;2.88;;
7255;SDS011;3669;49.200;9.242;2023-05-24T09:06:28;5.00;;;3.00;;
7255;SDS011;3669;49.200;9.242;2023-05-24T09:08:55;6.40;;;3.20;;
7255;SDS011;3669;49.200;9.242;2023-05-24T09:11:22;6.93;;;3.28;;
7255;SDS011;3669;49.200;9.242;2023-05-24T09:13:51;5.35;;;3.17;;
7255;SDS011;3669;49.200;9.242;2023-05-24T09:16:20;6.40;;;3.45;;
7255;SDS011;3669;49.200;9.242;2023-05-24T09:18:47;6.18;;;3.55;;
7255;SDS011;3669;49.200;9.242;2023-05-24T09:21:14;6.70;;;3.58;;
7255;SDS011;3669;49.200;9.242;2023-05-24T09:23:42;5.43;;;3.17;;
7255;SDS011;3669;49.200;9.242;2023-05-24T09:26:10;6.60;;;3.47;;
7255;SDS011;3669;49.200;9.242;2023-05-24T09:28:37;6.97;;;3.17;;
7255;SDS011;3669;49.200;9.242;2023-05-24T09:31:06;6.03;;;3.30;;
7255;SDS011;3669;49.200;9.242;2023-05-24T09:33:34;5.55;;;3.20;;
7255;SDS011;3669;49.200;9.242;2023-05-24T09:36:05;6.50;;;3.38;;
7255;SDS011;3669;49.200;9.242;2023-05-24T09:38:32;6.13;;;3.60;;
7255;SDS011;3669;49.200;9.242;2023-05-24T09:41:01;5.97;;;3.20;;
7255;SDS011;3669;49.200;9.242;2023-05-24T09:43:29;5.18;;;3.58;;
7255;SDS011;3669;49.200;9.242;2023-05-24T09:45:57;7.85;;;3.55;;
7255;SDS011;3669;49.200;9.242;2023-05-24T09:48:25;7.93;;;3.47;;
7255;SDS011;3669;49.200;9.242;2023-05-24T09:51:02;7.15;;;3.58;;
7255;SDS011;3669;49.200;9.242;2023-05-24T09:53:31;5.13;;;3.30;;
7255;SDS011;3669;49.200;9.242;2023-05-24T09:55:58;5.60;;;3.38;;
7255;SDS011;3669;49.200;9.242;2023-05-24T09:58:33;16.50;;;15.40;;
7255;SDS011;3669;49.200;9.242;2023-05-24T10:01:07;6.50;;;3.95;;
7255;SDS011;3669;49.200;9.242;2023-05-24T10:03:56;5.80;;;3.25;;
7255;SDS011;3669;49.200;9.242;2023-05-24T10:06:25;5.53;;;3.25;;
7255;SDS011;3669;49.200;9.242;2023-05-24T10:08:52;5.57;;;3.20;;
7255;SDS011;3669;49.200;9.242;2023-05-24T10:11:22;8.25;;;3.60;;
7255;SDS011;3669;49.200;9.242;2023-05-24T10:13:49;4.88;;;2.80;;
7255;SDS011;3669;49.200;9.242;2023-05-24T10:16:16;6.70;;;3.17;;
7255;SDS011;3669;49.200;9.242;2023-05-24T10:18:43;4.28;;;3.00;;
7255;SDS011;3669;49.200;9.242;2023-05-24T10:21:10;6.07;;;3.33;;
7255;SDS011;3669;49.200;9.242;2023-05-24T10:23:38;18.63;;;17.35;;
7255;SDS011;3669;49.200;9.242;2023-05-24T10:26:09;28.05;;;26.45;;
7255;SDS011;3669;49.200;9.242;2023-05-24T10:28:46;10.90;;;8.05;;
7255;SDS011;3669;49.200;9.242;2023-05-24T10:33:41;6.78;;;4.38;;
7255;SDS011;3669;49.200;9.242;2023-05-24T10:36:09;6.68;;;3.08;;
7255;SDS011;3669;49.200;9.242;2023-05-24T10:38:37;7.47;;;3.60;;
7255;SDS011;3669;49.200;9.242;2023-05-24T10:41:05;5.75;;;3.35;;
7255;SDS011;3669;49.200;9.242;2023-05-24T10:43:33;8.02;;;3.28;;
7255;SDS011;3669;49.200;9.242;2023-05-24T10:46:01;4.85;;;3.15;;
7255;SDS011;3669;49.200;9.242;2023-05-24T10:48:32;4.45;;;2.70;;
7255;SDS011;3669;49.200;9.242;2023-05-24T10:51:15;8.63;;;3.55;;
7255;SDS011;3669;49.200;9.242;2023-05-24T10:53:48;5.38;;;3.33;;
7255;SDS011;3669;49.200;9.242;2023-05-24T10:56:16;3.72;;;2.88;;
7255;SDS011;3669;49.200;9.242;2023-05-24T11:01:29;4.90;;;3.15;;
7255;SDS011;3669;49.200;9.242;2023-05-24T11:09:17;6.30;;;3.13;;
7255;SDS011;3669;49.200;9.242;2023-05-24T11:11:49;5.53;;;2.78;;
7255;SDS011;3669;49.200;9.242;2023-05-24T11:14:23;6.82;;;3.28;;
7255;SDS011;3669;49.200;9.242;2023-05-24T11:16:53;6.22;;;3.20;;
7255;SDS011;3669;49.200;9.242;2023-05-24T11:19:21;6.43;;;3.35;;
7255;SDS011;3669;49.200;9.242;2023-05-24T11:21:51;5.72;;;3.47;;
7255;SDS011;3669;49.200;9.242;2023-05-24T11:24:24;6.25;;;2.80;;
7255;SDS011;3669;49.200;9.242;2023-05-24T11:26:52;6.68;;;3.20;;
7255;SDS011;3669;49.200;9.242;2023-05-24T11:29:19;5.47;;;3.47;;
7255;SDS011;3669;49.200;9.242;2023-05-24T11:31:50;5.10;;;3.00;;
7255;SDS011;3669;49.200;9.242;2023-05-24T11:34:18;5.32;;;3.15;;
7255;SDS011;3669;49.200;9.242;2023-05-24T11:36:45;5.47;;;2.92;;
7255;SDS011;3669;49.200;9.242;2023-05-24T11:39:13;7.45;;;3.22;;
7255;SDS011;3669;49.200;9.242;2023-05-24T11:41:40;7.35;;;3.28;;
7255;SDS011;3669;49.200;9.242;2023-05-24T11:44:08;5.00;;;2.95;;
7255;SDS011;3669;49.200;9.242;2023-05-24T11:46:37;5.43;;;3.20;;
7255;SDS011;3669;49.200;9.242;2023-05-24T11:49:04;6.20;;;3.35;;
7255;SDS011;3669;49.200;9.242;2023-05-24T11:51:32;5.78;;;3.60;;
7255;SDS011;3669;49.200;9.242;2023-05-24T11:54:00;4.45;;;3.17;;
7255;SDS011;3669;49.200;9.242;2023-05-24T11:56:31;5.15;;;3.22;;
7255;SDS011;3669;49.200;9.242;2023-05-24T11:59:08;4.63;;;2.95;;
7255;SDS011;3669;49.200;9.242;2023-05-24T12:01:35;4.97;;;2.85;;
7255;SDS011;3669;49.200;9.242;2023-05-24T12:04:04;5.75;;;3.30;;
7255;SDS011;3669;49.200;9.242;2023-05-24T12:06:36;4.90;;;3.08;;
7255;SDS011;3669;49.200;9.242;2023-05-24T12:09:04;4.90;;;2.80;;
7255;SDS011;3669;49.200;9.242;2023-05-24T12:11:39;5.70;;;3.22;;
7255;SDS011;3669;49.200;9.242;2023-05-24T12:14:16;5.47;;;3.00;;
7255;SDS011;3669;49.200;9.242;2023-05-24T12:16:45;5.65;;;2.95;;
7255;SDS011;3669;49.200;9.242;2023-05-24T12:19:16;6.05;;;3.10;;
7255;SDS011;3669;49.200;9.242;2023-05-24T12:21:43;5.28;;;2.95;;
7255;SDS011;3669;49.200;9.242;2023-05-24T12:24:11;6.40;;;2.95;;
7255;SDS011;3669;49.200;9.242;2023-05-24T12:26:40;5.93;;;3.08;;
7255;SDS011;3669;49.200;9.242;2023-05-24T12:29:11;5.55;;;3.00;;
7255;SDS011;3669;49.200;9.242;2023-05-24T12:31:39;3.15;;;2.50;;
7255;SDS011;3669;49.200;9.242;2023-05-24T12:34:16;5.25;;;2.90;;
7255;SDS011;3669;49.200;9.242;2023-05-24T12:36:43;4.53;;;3.17;;
7255;SDS011;3669;49.200;9.242;2023-05-24T12:39:18;4.50;;;3.10;;
7255;SDS011;3669;49.200;9.242;2023-05-24T12:41:48;5.03;;;2.78;;
7255;SDS011;3669;49.200;9.242;2023-05-24T12:44:20;7.82;;;3.08;;
7255;SDS011;3669;49.200;9.242;2023-05-24T12:46:47;5.10;;;2.88;;
7255;SDS011;3669;49.200;9.242;2023-05-24T12:49:15;6.43;;;3.03;;
7255;SDS011;3669;49.200;9.242;2023-05-24T12:51:42;6.07;;;3.30;;
7255;SDS011;3669;49.200;9.242;2023-05-24T12:54:09;7.10;;;3.42;;
7255;SDS011;3669;49.200;9.242;2023-05-24T12:56:36;7.60;;;6.90;;
7255;SDS011;3669;49.200;9.242;2023-05-24T12:59:03;14.18;;;13.27;;
7255;SDS011;3669;49.200;9.242;2023-05-24T13:01:30;22.20;;;20.73;;
7255;SDS011;3669;49.200;9.242;2023-05-24T13:03:57;20.50;;;19.10;;
7255;SDS011;3669;49.200;9.242;2023-05-24T13:06:24;24.08;;;22.65;;
7255;SDS011;3669;49.200;9.242;2023-05-24T13:08:51;15.35;;;14.45;;
7255;SDS011;3669;49.200;9.242;2023-05-24T13:11:18;22.92;;;21.38;;
7255;SDS011;3669;49.200;9.242;2023-05-24T13:13:44;8.55;;;7.07;;
7255;SDS011;3669;49.200;9.242;2023-05-24T13:16:11;5.20;;;2.75;;
7255;SDS011;3669;49.200;9.242;2023-05-24T13:18:39;5.55;;;3.10;;
7255;SDS011;3669;49.200;9.242;2023-05-24T13:21:06;4.75;;;2.70;;
7255;SDS011;3669;49.200;9.242;2023-05-24T13:23:33;6.75;;;3.03;;
7255;SDS011;3669;49.200;9.242;2023-05-24T13:26:05;5.55;;;3.28;;
7255;SDS011;3669;49.200;9.242;2023-05-24T13:28:32;4.75;;;2.90;;
7255;SDS011;3669;49.200;9.242;2023-05-24T13:30:59;5.95;;;2.80;;
7255;SDS011;3669;49.200;9.242;2023-05-24T13:33:26;5.43;;;2.75;;
7255;SDS011;3669;49.200;9.242;2023-05-24T13:35:53;5.15;;;3.00;;
7255;SDS011;3669;49.200;9.242;2023-05-24T13:38:20;4.40;;;2.60;;
7255;SDS011;3669;49.200;9.242;2023-05-24T13:40:48;4.63;;;2.92;;
7255;SDS011;3669;49.200;9.242;2023-05-24T13:43:16;4.70;;;2.42;;
7255;SDS011;3669;49.200;9.242;2023-05-24T13:45:43;6.97;;;2.92;;
7255;SDS011;3669;49.200;9.242;2023-05-24T13:48:10;4.47;;;2.33;;
7255;SDS011;3669;49.200;9.242;2023-05-24T13:50:37;5.00;;;3.00;;
7255;SDS011;3669;49.200;9.242;2023-05-24T13:53:51;19.73;;;18.48;;
7255;SDS011;3669;49.200;9.242;2023-05-24T13:56:20;23.38;;;21.95;;
7255;SDS011;3669;49.200;9.242;2023-05-24T13:58:49;16.67;;;15.43;;
7255;SDS011;3669;49.200;9.242;2023-05-24T14:01:16;9.48;;;8.68;;
7255;SDS011;3669;49.200;9.242;2023-05-24T14:03:42;6.13;;;3.55;;
7255;SDS011;3669;49.200;9.242;2023-05-24T14:06:09;5.32;;;2.60;;
7255;SDS011;3669;49.200;9.242;2023-05-24T14:08:36;4.70;;;2.85;;
7255;SDS011;3669;49.200;9.242;2023-05-24T14:11:03;3.45;;;2.58;;
7255;SDS011;3669;49.200;9.242;2023-05-24T14:13:30;5.47;;;3.05;;
7255;SDS011;3669;49.200;9.242;2023-05-24T14:15:57;6.15;;;2.80;;
7255;SDS011;3669;49.200;9.242;2023-05-24T14:18:25;4.47;;;2.72;;
7255;SDS011;3669;49.200;9.242;2023-05-24T14:20:52;6.10;;;2.70;;
7255;SDS011;3669;49.200;9.242;2023-05-24T14:23:19;4.55;;;2.50;;
7255;SDS011;3669;49.200;9.242;2023-05-24T14:25:46;5.28;;;2.95;;
7255;SDS011;3669;49.200;9.242;2023-05-24T14:28:13;6.22;;;3.20;;
7255;SDS011;3669;49.200;9.242;2023-05-24T14:30:40;4.30;;;2.53;;
7255;SDS011;3669;49.200;9.242;2023-05-24T14:33:08;5.65;;;3.00;;
7255;SDS011;3669;49.200;9.242;2023-05-24T14:35:38;3.85;;;2.45;;
7255;SDS011;3669;49.200;9.242;2023-05-24T14:38:06;4.72;;;3.00;;
7255;SDS011;3669;49.200;9.242;2023-05-24T14:40:34;4.60;;;2.58;;
7255;SDS011;3669;49.200;9.242;2023-05-24T14:43:03;4.53;;;2.58;;
7255;SDS011;3669;49.200;9.242;2023-05-24T14:45:30;4.40;;;2.50;;
7255;SDS011;3669;49.200;9.242;2023-05-24T14:47:57;6.85;;;3.03;;
7255;SDS011;3669;49.200;9.242;2023-05-24T14:50:25;4.05;;;2.20;;
7255;SDS011;3669;49.200;9.242;2023-05-24T14:52:52;4.22;;;2.67;;
7255;SDS011;3669;49.200;9.242;2023-05-24T14:55:19;4.97;;;2.90;;
7255;SDS011;3669;49.200;9.242;2023-05-24T14:57:46;5.35;;;2.70;;
7255;SDS011;3669;49.200;9.242;2023-05-24T15:00:14;6.72;;;3.25;;
7255;SDS011;3669;49.200;9.242;2023-05-24T15:02:41;5.88;;;2.97;;
7255;SDS011;3669;49.200;9.242;2023-05-24T15:05:08;3.80;;;2.47;;
7255;SDS011;3669;49.200;9.242;2023-05-24T15:07:35;3.85;;;2.60;;
7255;SDS011;3669;49.200;9.242;2023-05-24T15:10:02;5.75;;;2.53;;
7255;SDS011;3669;49.200;9.242;2023-05-24T15:12:29;5.00;;;2.63;;
7255;SDS011;3669;49.200;9.242;2023-05-24T15:14:57;4.40;;;2.60;;
7255;SDS011;3669;49.200;9.242;2023-05-24T15:17:24;5.25;;;2.67;;
7255;SDS011;3669;49.200;9.242;2023-05-24T15:19:51;5.82;;;2.70;;
7255;SDS011;3669;49.200;9.242;2023-05-24T15:22:18;4.97;;;2.85;;
7255;SDS011;3669;49.200;9.242;2023-05-24T15:24:45;6.25;;;3.05;;
7255;SDS011;3669;49.200;9.242;2023-05-24T15:27:12;4.63;;;2.60;;
7255;SDS011;3669;49.200;9.242;2023-05-24T15:29:40;6.57;;;2.67;;
7255;SDS011;3669;49.200;9.242;2023-05-24T15:32:07;5.65;;;2.58;;
7255;SDS011;3669;49.200;9.242;2023-05-24T15:34:34;4.93;;;2.70;;
7255;SDS011;3669;49.200;9.242;2023-05-24T15:37:01;4.82;;;2.83;;